Time;durP1;ratioP1;P1;durP2;ratioP2;P2;SDS_P1;SDS_P2;PMS_P1;PMS_P2;Temp;Humidity;BMP_temperature;BMP_pressure;BME280_temperature;BME280_humidity;BME280_pressure;Samples;Min_cycle;Max_cycle;Signal;HPM_P1;HPM_P2
2022/11/20 00:00:55;;;;;;;21.08;13.85;;;-3.10;99.90;;;;;;5058661;28;20123;-52
2022/11/20 00:03:21;;;;;;;19.40;14.00;;;-3.10;99.90;;;;;;5060680;28;20140;-53
2022/11/20 00:05:47;;;;;;;22.10;14.52;;;-3.10;99.90;;;;;;5056035;28;20071;-50
2022/11/20 00:08:13;;;;;;;22.05;14.63;;;-3.10;99.90;;;;;;5063038;28;20135;-50
2022/11/20 00:10:39;;;;;;;25.13;15.35;;;-3.10;99.90;;;;;;5063866;28;20111;-53
2022/11/20 00:13:06;;;;;;;23.25;16.13;;;-2.90;99.90;;;;;;5057031;28;20129;-50
2022/11/20 00:15:31;;;;;;;23.50;17.15;;;-2.80;99.90;;;;;;5062289;28;20048;-53
2022/11/20 00:17:57;;;;;;;26.17;17.48;;;-2.80;99.90;;;;;;5061204;28;20070;-54
2022/11/20 00:20:23;;;;;;;25.00;17.08;;;-2.80;99.90;;;;;;5060773;28;20055;-53
2022/11/20 00:22:49;;;;;;;26.48;16.83;;;-2.80;99.90;;;;;;5062841;28;20060;-53
2022/11/20 00:25:15;;;;;;;23.75;17.13;;;-2.80;99.90;;;;;;5058464;28;20043;-54
2022/11/20 00:27:41;;;;;;;24.95;16.85;;;-2.90;99.90;;;;;;5058471;28;20582;-50
2022/11/20 00:30:07;;;;;;;22.83;16.52;;;-2.90;99.90;;;;;;5056764;28;20041;-54
2022/11/20 00:32:32;;;;;;;23.52;16.00;;;-2.90;99.90;;;;;;5061548;28;20037;-54
2022/11/20 00:34:58;;;;;;;22.70;16.23;;;-2.90;99.90;;;;;;5064258;28;20048;-53
2022/11/20 00:37:23;;;;;;;23.00;16.40;;;-2.90;99.90;;;;;;5066783;28;20044;-51
2022/11/20 00:39:49;;;;;;;22.52;14.98;;;-2.90;99.90;;;;;;5063613;28;20800;-52
2022/11/20 00:42:14;;;;;;;22.33;15.55;;;-2.90;99.90;;;;;;5063890;28;20036;-49
2022/11/20 00:44:40;;;;;;;19.60;15.00;;;-2.90;99.90;;;;;;5063888;28;20040;-52
2022/11/20 00:47:06;;;;;;;23.30;16.38;;;-3.00;99.90;;;;;;5063723;28;20436;-51
2022/11/20 00:49:31;;;;;;;22.73;14.73;;;-2.90;99.90;;;;;;5062811;28;20029;-53
2022/11/20 00:51:57;;;;;;;23.77;16.17;;;-2.90;99.90;;;;;;5044498;28;20138;-49
2022/11/20 00:54:22;;;;;;;22.35;15.70;;;-2.90;99.90;;;;;;5065228;28;20048;-54
2022/11/20 00:56:48;;;;;;;21.98;15.93;;;-2.90;99.90;;;;;;5067010;28;20040;-51
2022/11/20 00:59:14;;;;;;;24.08;14.77;;;-2.90;99.90;;;;;;5066436;28;20040;-52
2022/11/20 01:01:39;;;;;;;20.33;14.50;;;-2.80;99.90;;;;;;5048542;28;20044;-51
2022/11/20 01:04:05;;;;;;;21.23;14.82;;;-2.80;99.90;;;;;;5067909;28;20612;-54
2022/11/20 01:06:36;;;;;;;26.90;17.08;;;-2.70;99.90;;;;;;5064649;28;20036;-52
2022/11/20 01:09:11;;;;;;;23.05;15.20;;;-2.70;99.90;;;;;;5046105;28;20437;-54
2022/11/20 01:11:39;;;;;;;23.33;16.08;;;-2.60;99.90;;;;;;5060806;28;20102;-52
2022/11/20 01:14:08;;;;;;;21.35;15.23;;;-2.60;99.90;;;;;;5039705;28;20049;-50
2022/11/20 01:16:36;;;;;;;24.23;17.10;;;-2.50;99.90;;;;;;5057366;28;20044;-51
2022/11/20 01:19:05;;;;;;;23.10;16.50;;;-2.50;99.90;;;;;;5060152;28;20051;-53
2022/11/20 01:21:32;;;;;;;;;;;-2.40;99.90;;;;;;5062784;28;20043;-54
2022/11/20 01:23:59;;;;;;;22.35;15.43;;;-2.40;99.90;;;;;;5043624;28;19943;-53
2022/11/20 01:26:27;;;;;;;21.77;15.50;;;-2.30;99.90;;;;;;5063092;28;20079;-54
2022/11/20 01:28:54;;;;;;;28.52;18.13;;;-2.30;99.90;;;;;;5060728;28;20041;-54
2022/11/20 01:31:37;;;;;;;23.45;15.80;;;-2.30;99.90;;;;;;5059405;28;20040;-55
2022/11/20 01:34:09;;;;;;;22.25;15.25;;;-2.30;99.90;;;;;;5059985;28;20063;-52
2022/11/20 01:36:36;;;;;;;20.15;14.90;;;-2.30;99.90;;;;;;5063158;28;20051;-55
2022/11/20 01:39:05;;;;;;;22.13;15.73;;;-2.30;99.90;;;;;;5067489;28;20042;-52
2022/11/20 01:44:20;;;;;;;19.42;14.90;;;-2.40;99.90;;;;;;5062222;28;20060;-56
2022/11/20 01:46:59;;;;;;;20.42;14.73;;;-2.40;99.90;;;;;;5062437;28;20478;-51
2022/11/20 01:49:34;;;;;;;19.80;14.63;;;-2.40;99.90;;;;;;5064224;28;20051;-56
2022/11/20 01:52:04;;;;;;;22.10;15.70;;;-2.40;99.90;;;;;;5062069;28;20165;-51
2022/11/20 01:54:41;;;;;;;21.92;14.82;;;-2.40;99.90;;;;;;5061481;28;20036;-54
2022/11/20 01:57:10;;;;;;;22.60;15.20;;;-2.40;99.90;;;;;;5063951;28;20393;-53
2022/11/20 01:59:41;;;;;;;21.80;14.55;;;-2.40;99.90;;;;;;5066275;28;20044;-55
2022/11/20 02:02:07;;;;;;;20.67;14.43;;;-2.30;99.90;;;;;;5066468;28;20074;-55
2022/11/20 02:04:33;;;;;;;23.52;14.95;;;-2.40;99.90;;;;;;5066228;28;20045;-52
2022/11/20 02:07:00;;;;;;;19.83;14.55;;;-2.40;99.90;;;;;;5067321;28;20398;-53
2022/11/20 02:09:27;;;;;;;20.40;14.93;;;-2.40;99.90;;;;;;5075925;28;20049;-55
2022/11/20 02:11:53;;;;;;;20.88;15.57;;;-2.40;99.90;;;;;;5067905;28;20076;-55
2022/11/20 02:14:20;;;;;;;19.73;15.10;;;-2.40;99.90;;;;;;5062771;28;20076;-53
2022/11/20 02:16:49;;;;;;;22.17;15.00;;;-2.40;99.90;;;;;;5061103;28;20041;-56
2022/11/20 02:19:30;;;;;;;22.27;15.35;;;-2.40;99.90;;;;;;5060543;28;20448;-53
2022/11/20 02:22:26;;;;;;;20.95;15.15;;;-2.40;99.90;;;;;;5061356;28;20032;-53
2022/11/20 02:24:52;;;;;;;18.77;14.10;;;-2.40;99.90;;;;;;5060938;28;20036;-54
2022/11/20 02:27:18;;;;;;;19.75;14.45;;;-2.40;99.90;;;;;;5063301;28;20037;-55
2022/11/20 02:29:57;;;;;;;21.15;13.73;;;-2.40;99.90;;;;;;5065539;28;20044;-52
2022/11/20 02:32:26;;;;;;;18.88;13.55;;;-2.40;99.90;;;;;;5064696;28;20124;-55
2022/11/20 02:34:52;;;;;;;20.58;14.88;;;-2.40;99.90;;;;;;5064138;28;20493;-52
2022/11/20 02:37:19;;;;;;;20.23;13.90;;;-2.40;99.90;;;;;;5043394;28;20051;-53
2022/11/20 02:39:47;;;;;;;20.67;13.55;;;-2.40;99.90;;;;;;5064448;28;20041;-52
2022/11/20 02:42:13;;;;;;;20.80;14.35;;;-2.40;99.90;;;;;;5068288;28;20503;-52
2022/11/20 02:44:39;;;;;;;21.17;14.77;;;-2.40;99.90;;;;;;5069646;28;20190;-53
2022/11/20 02:47:04;;;;;;;21.92;14.75;;;-2.40;99.90;;;;;;5064524;28;20640;-56
2022/11/20 02:49:30;;;;;;;21.52;15.00;;;-2.30;99.90;;;;;;5068987;28;20040;-53
2022/11/20 02:51:55;;;;;;;19.83;13.80;;;-2.40;99.90;;;;;;5068774;28;20367;-52
2022/11/20 02:54:21;;;;;;;19.52;14.00;;;-2.30;99.90;;;;;;5068711;28;20041;-53
2022/11/20 02:56:46;;;;;;;18.92;13.85;;;-2.40;99.90;;;;;;5064590;28;20508;-53
2022/11/20 02:59:12;;;;;;;23.90;13.82;;;-2.40;99.90;;;;;;5068265;28;20037;-55
2022/11/20 03:01:38;;;;;;;20.00;14.05;;;-2.40;99.90;;;;;;5071003;28;20498;-51
2022/11/20 03:04:04;;;;;;;19.65;13.40;;;-2.40;99.90;;;;;;5069654;28;20040;-50
2022/11/20 03:06:30;;;;;;;20.10;14.60;;;-2.40;99.90;;;;;;5068184;28;20508;-52
2022/11/20 03:08:55;;;;;;;21.52;14.10;;;-2.40;99.90;;;;;;5051081;28;20131;-54
2022/11/20 03:11:21;;;;;;;18.10;13.82;;;-2.40;99.90;;;;;;5068442;28;20098;-51
2022/11/20 03:13:46;;;;;;;19.35;14.50;;;-2.40;99.90;;;;;;5064824;28;20474;-54
2022/11/20 03:16:15;;;;;;;17.65;13.60;;;-2.40;99.90;;;;;;5059602;28;20123;-51
2022/11/20 03:18:40;;;;;;;;;;;-2.40;99.90;;;;;;5058618;28;20118;-56
2022/11/20 03:21:07;;;;;;;19.17;13.73;;;-2.40;99.90;;;;;;5061078;28;19920;-53
2022/11/20 03:23:33;;;;;;;19.40;13.48;;;-2.40;99.90;;;;;;5042702;28;20059;-55
2022/11/20 03:26:25;;;;;;;18.70;14.15;;;-2.40;99.90;;;;;;5058854;28;21948;-52
2022/11/20 03:28:52;;;;;;;18.48;13.80;;;-2.40;99.90;;;;;;5059829;28;20833;-54
2022/11/20 03:31:24;;;;;;;20.10;13.70;;;-2.40;99.90;;;;;;5070000;28;20060;-53
2022/11/20 03:33:50;;;;;;;20.90;14.73;;;-2.40;99.90;;;;;;5063231;28;20056;-54
2022/11/20 03:36:17;;;;;;;21.55;14.63;;;-2.40;99.90;;;;;;5063296;28;20044;-52
2022/11/20 03:38:44;;;;;;;19.13;13.67;;;-2.40;99.90;;;;;;5068746;28;20379;-55
2022/11/20 03:41:12;;;;;;;20.98;14.35;;;-2.30;99.90;;;;;;5067590;28;20064;-54
2022/11/20 03:43:38;;;;;;;19.77;14.98;;;-2.30;99.90;;;;;;5069169;28;20036;-55
2022/11/20 03:46:04;;;;;;;20.85;14.18;;;-2.30;99.90;;;;;;5051260;28;20063;-55
2022/11/20 03:48:30;;;;;;;21.70;15.27;;;-2.30;99.90;;;;;;5066777;28;20127;-52
2022/11/20 03:51:15;;;;;;;21.27;14.68;;;-2.20;99.90;;;;;;5063732;28;20157;-52
2022/11/20 03:53:42;;;;;;;22.35;15.05;;;-2.20;99.90;;;;;;5062095;28;20428;-52
2022/11/20 03:56:09;;;;;;;17.27;13.60;;;-2.20;99.90;;;;;;5063638;28;20041;-53
2022/11/20 03:58:39;;;;;;;21.17;14.77;;;-2.20;99.90;;;;;;5063490;28;20306;-54
2022/11/20 04:01:10;;;;;;;20.88;14.32;;;-2.30;99.90;;;;;;5068991;28;20094;-51
2022/11/20 04:03:36;;;;;;;21.42;14.13;;;-2.20;99.90;;;;;;5069574;28;20040;-57
2022/11/20 04:06:07;;;;;;;21.55;15.63;;;-2.20;99.90;;;;;;5064056;28;20048;-52
2022/11/20 04:08:33;;;;;;;20.90;14.27;;;-2.20;99.90;;;;;;5069711;28;20055;-51
2022/11/20 04:11:14;;;;;;;21.45;14.75;;;-2.10;99.90;;;;;;5073322;28;20044;-55
2022/11/20 04:13:41;;;;;;;21.17;14.80;;;-2.10;99.90;;;;;;5066354;28;20120;-56
2022/11/20 04:16:08;;;;;;;19.88;13.70;;;-2.10;99.90;;;;;;5054510;28;20041;-52
2022/11/20 04:18:34;;;;;;;19.90;14.57;;;-2.10;99.90;;;;;;5060978;28;20079;-52
2022/11/20 04:20:59;;;;;;;17.95;14.05;;;-2.10;99.90;;;;;;5052964;28;20542;-53
2022/11/20 04:23:25;;;;;;;18.70;14.60;;;-2.10;99.90;;;;;;5053984;28;20064;-53
2022/11/20 04:25:51;;;;;;;20.30;15.48;;;-2.10;99.90;;;;;;5052772;28;20040;-55
2022/11/20 04:28:17;;;;;;;20.77;15.40;;;-2.10;99.90;;;;;;5053483;28;20041;-56
2022/11/20 04:30:42;;;;;;;18.02;14.05;;;-2.10;99.90;;;;;;5047352;28;20037;-55
2022/11/20 04:33:08;;;;;;;20.52;14.35;;;-2.10;99.90;;;;;;5044025;28;20132;-53
2022/11/20 04:35:34;;;;;;;19.58;14.02;;;-2.10;99.90;;;;;;5045702;28;20076;-51
2022/11/20 04:38:00;;;;;;;20.45;14.32;;;-2.10;99.90;;;;;;5046315;28;20037;-57
2022/11/20 04:40:27;;;;;;;19.77;14.27;;;-2.10;99.90;;;;;;5044194;28;20044;-54
2022/11/20 04:42:54;;;;;;;22.15;15.52;;;-2.10;99.90;;;;;;5043452;28;20425;-52
2022/11/20 04:45:19;;;;;;;20.98;14.98;;;-2.10;99.90;;;;;;5041380;28;20048;-51
2022/11/20 04:47:45;;;;;;;21.08;15.00;;;-2.10;99.90;;;;;;5049067;28;20051;-54
2022/11/20 04:50:11;;;;;;;21.83;15.05;;;-2.00;99.90;;;;;;5046490;28;20041;-52
2022/11/20 04:52:36;;;;;;;22.15;15.43;;;-2.10;99.90;;;;;;5046305;28;20029;-53
2022/11/20 04:55:02;;;;;;;23.05;15.23;;;-2.00;99.90;;;;;;5039678;28;20040;-53
2022/11/20 04:57:28;;;;;;;20.55;15.10;;;-2.00;99.90;;;;;;5044301;28;20402;-53
2022/11/20 04:59:53;;;;;;;20.75;15.05;;;-2.00;99.90;;;;;;5040578;28;20048;-56
2022/11/20 05:02:19;;;;;;;21.38;15.68;;;-2.00;99.90;;;;;;5047694;28;20051;-51
2022/11/20 05:04:45;;;;;;;16.80;14.27;;;-2.00;99.90;;;;;;5045475;28;20028;-55
2022/11/20 05:07:10;;;;;;;19.50;14.32;;;-1.90;99.90;;;;;;5047577;28;20094;-52
2022/11/20 05:09:36;;;;;;;19.00;13.90;;;-1.90;99.90;;;;;;5047921;28;20037;-55
2022/11/20 05:12:02;;;;;;;19.40;14.82;;;-1.90;99.90;;;;;;5047963;28;20048;-56
2022/11/20 05:14:27;;;;;;;18.88;14.05;;;-1.80;99.90;;;;;;5062746;28;20064;-52
2022/11/20 05:16:53;;;;;;;20.15;15.27;;;-1.80;99.90;;;;;;5043932;28;20033;-54
2022/11/20 05:19:18;;;;;;;23.17;16.15;;;-1.70;99.90;;;;;;5052577;28;20413;-53
2022/11/20 05:21:44;;;;;;;20.45;15.23;;;-1.70;99.90;;;;;;5065570;28;20035;-52
2022/11/20 05:24:10;;;;;;;19.20;14.10;;;-1.70;99.90;;;;;;5047041;28;20048;-53
2022/11/20 05:26:35;;;;;;;20.35;15.27;;;-1.70;99.90;;;;;;5050942;28;20068;-51
2022/11/20 05:29:01;;;;;;;22.35;15.25;;;-1.60;99.90;;;;;;5063669;28;20036;-53
2022/11/20 05:31:27;;;;;;;20.88;15.88;;;-1.60;99.90;;;;;;5065657;28;20043;-53
2022/11/20 05:33:52;;;;;;;20.55;14.35;;;-1.60;99.90;;;;;;5067108;28;20033;-54
2022/11/20 05:36:18;;;;;;;24.13;15.25;;;-1.60;99.90;;;;;;5068763;28;20058;-56
2022/11/20 05:38:44;;;;;;;21.25;15.13;;;-1.60;99.90;;;;;;5064311;28;20068;-51
2022/11/20 05:41:16;;;;;;;18.55;14.35;;;-1.60;99.90;;;;;;5068830;28;20520;-55
2022/11/20 05:43:44;;;;;;;22.30;15.88;;;-1.60;99.90;;;;;;5070101;28;20040;-54
2022/11/20 05:46:12;;;;;;;19.85;15.10;;;-1.60;99.90;;;;;;5069519;28;20367;-52
2022/11/20 05:48:39;;;;;;;23.00;15.25;;;-1.50;99.90;;;;;;5070199;28;20490;-53
2022/11/20 05:51:08;;;;;;;22.13;15.57;;;-1.50;99.90;;;;;;5068583;28;20028;-55
2022/11/20 05:53:34;;;;;;;22.63;15.20;;;-1.40;99.90;;;;;;5065519;28;20326;-55
2022/11/20 05:56:12;;;;;;;23.23;15.07;;;-1.40;99.90;;;;;;5067931;28;20062;-51
2022/11/20 05:58:38;;;;;;;21.75;15.57;;;-1.50;99.90;;;;;;5071538;28;20055;-55
2022/11/20 06:01:25;;;;;;;21.95;14.65;;;-1.40;99.90;;;;;;5070252;28;20401;-53
2022/11/20 06:03:52;;;;;;;22.88;14.82;;;-1.40;99.90;;;;;;5066983;28;20440;-55
2022/11/20 06:06:19;;;;;;;22.88;15.75;;;-1.40;99.90;;;;;;5066009;28;20044;-54
2022/11/20 06:08:44;;;;;;;22.73;15.63;;;-1.30;99.90;;;;;;5066485;28;20064;-55
2022/11/20 06:11:12;;;;;;;20.73;15.40;;;-1.30;99.90;;;;;;5072358;28;20040;-52
2022/11/20 06:13:38;;;;;;;21.23;15.52;;;-1.30;99.90;;;;;;5065152;28;20398;-55
2022/11/20 06:16:04;;;;;;;25.50;16.73;;;-1.30;99.90;;;;;;5066333;28;20036;-51
2022/11/20 06:18:30;;;;;;;21.00;14.77;;;-1.30;99.90;;;;;;5065812;28;20414;-55
2022/11/20 06:21:04;;;;;;;20.25;15.32;;;-1.20;99.90;;;;;;5066761;28;20040;-51
2022/11/20 06:23:31;;;;;;;20.85;15.15;;;-1.20;99.90;;;;;;5066379;28;20033;-52
2022/11/20 06:25:58;;;;;;;23.90;14.73;;;-1.20;99.90;;;;;;5065718;28;20051;-54
2022/11/20 06:28:23;;;;;;;21.13;15.15;;;-1.20;99.90;;;;;;5066694;28;20124;-53
2022/11/20 06:30:49;;;;;;;19.98;15.00;;;-1.20;99.90;;;;;;5068112;28;20506;-56
2022/11/20 06:33:14;;;;;;;20.10;14.05;;;-1.30;99.90;;;;;;5066399;28;20044;-51
2022/11/20 06:35:40;;;;;;;25.25;15.85;;;-1.20;99.90;;;;;;5064649;28;20049;-53
2022/11/20 06:38:05;;;;;;;19.73;15.32;;;-1.20;99.90;;;;;;5066715;28;20051;-53
2022/11/20 06:40:31;;;;;;;19.35;15.25;;;-1.20;99.90;;;;;;5069531;28;20044;-52
2022/11/20 06:42:57;;;;;;;19.65;14.57;;;-1.20;99.90;;;;;;5064112;28;20032;-56
2022/11/20 06:45:22;;;;;;;18.35;12.85;;;-1.20;99.90;;;;;;5065222;28;20385;-53
2022/11/20 06:47:48;;;;;;;21.25;12.63;;;-1.30;99.90;;;;;;5047004;28;20135;-51
2022/11/20 06:50:13;;;;;;;20.17;14.48;;;-1.30;99.90;;;;;;5062058;28;20048;-54
2022/11/20 06:52:39;;;;;;;18.83;14.07;;;-1.30;99.90;;;;;;5061443;28;20444;-52
2022/11/20 06:55:05;;;;;;;18.77;14.25;;;-1.30;99.90;;;;;;5063458;28;20439;-52
2022/11/20 06:57:30;;;;;;;19.40;14.57;;;-1.20;99.90;;;;;;5047640;28;20078;-55
2022/11/20 06:59:56;;;;;;;18.77;13.82;;;-1.20;99.90;;;;;;5065015;28;21012;-55
2022/11/20 07:02:22;;;;;;;16.90;13.30;;;-1.20;99.90;;;;;;5065114;28;20493;-54
2022/11/20 07:04:47;;;;;;;19.02;14.77;;;-1.20;99.90;;;;;;5068589;28;20048;-53
2022/11/20 07:07:13;;;;;;;21.42;14.90;;;-1.20;99.90;;;;;;5069692;28;20034;-54
2022/11/20 07:09:39;;;;;;;19.65;15.13;;;-1.20;99.90;;;;;;5067308;28;20547;-50
2022/11/20 07:12:04;;;;;;;21.38;15.32;;;-1.10;99.90;;;;;;5066947;28;20044;-54
2022/11/20 07:14:30;;;;;;;21.73;16.10;;;-1.10;99.90;;;;;;5063084;28;20068;-56
2022/11/20 07:16:56;;;;;;;18.48;14.70;;;-1.00;99.90;;;;;;5064392;28;20047;-52
2022/11/20 07:19:21;;;;;;;20.60;14.32;;;-1.10;99.90;;;;;;5064255;28;20048;-56
2022/11/20 07:21:47;;;;;;;20.88;15.10;;;-1.00;99.90;;;;;;5064571;28;20134;-51
2022/11/20 07:24:12;;;;;;;22.60;14.93;;;-1.00;99.90;;;;;;5061275;28;20059;-53
2022/11/20 07:26:38;;;;;;;20.20;14.95;;;-1.00;99.90;;;;;;5060361;28;20048;-55
2022/11/20 07:29:04;;;;;;;18.85;14.82;;;-1.00;99.90;;;;;;5058942;28;20049;-54
2022/11/20 07:31:29;;;;;;;18.90;14.20;;;-1.00;99.90;;;;;;5059567;28;20036;-54
2022/11/20 07:33:55;;;;;;;18.42;14.98;;;-0.90;99.90;;;;;;5060304;28;20576;-55
2022/11/20 07:36:20;;;;;;;21.88;15.73;;;-0.90;99.90;;;;;;5058679;28;20064;-51
2022/11/20 07:38:46;;;;;;;18.05;14.40;;;-0.90;99.90;;;;;;5059966;28;20043;-52
2022/11/20 07:41:12;;;;;;;18.52;14.55;;;-0.90;99.90;;;;;;5065823;28;20076;-54
2022/11/20 07:43:37;;;;;;;19.75;14.45;;;-0.90;99.90;;;;;;5068998;28;20036;-55
2022/11/20 07:46:03;;;;;;;19.83;14.93;;;-0.80;99.90;;;;;;5068072;28;20036;-54
2022/11/20 07:48:29;;;;;;;22.42;13.85;;;-0.80;99.90;;;;;;5066039;28;20098;-52
2022/11/20 07:50:56;;;;;;;19.08;13.85;;;-0.80;99.90;;;;;;5066885;28;20049;-53
2022/11/20 07:53:22;;;;;;;20.17;15.52;;;-0.80;99.90;;;;;;5063534;28;20050;-55
2022/11/20 07:55:47;;;;;;;20.60;15.07;;;-0.80;99.90;;;;;;5065362;28;20853;-54
2022/11/20 07:58:16;;;;;;;21.73;15.32;;;-0.70;99.90;;;;;;5062792;28;20135;-54
2022/11/20 08:00:42;;;;;;;19.23;14.50;;;-0.70;99.90;;;;;;5062144;28;20049;-54
2022/11/20 08:03:07;;;;;;;17.65;14.25;;;-0.60;99.90;;;;;;5062386;28;20044;-53
2022/11/20 08:05:33;;;;;;;20.35;15.15;;;;;;;;;;5064612;28;20078;-54
2022/11/20 08:07:59;;;;;;;18.50;14.50;;;-0.50;99.90;;;;;;5065431;28;20378;-53
2022/11/20 08:10:25;;;;;;;19.80;15.52;;;-0.50;99.90;;;;;;5065045;28;20043;-55
2022/11/20 08:15:37;;;;;;;19.80;14.93;;;-0.40;99.90;;;;;;5069234;28;20040;-55
2022/11/20 08:18:11;;;;;;;22.20;15.38;;;-0.40;99.90;;;;;;5068903;28;20059;-53
2022/11/20 08:20:36;;;;;;;18.15;14.50;;;-0.40;99.90;;;;;;5068392;28;20634;-51
2022/11/20 08:23:07;;;;;;;19.33;14.73;;;-0.40;99.90;;;;;;5068140;28;20075;-50
2022/11/20 08:25:35;;;;;;;20.02;15.57;;;-0.40;99.90;;;;;;5053699;28;20040;-53
2022/11/20 08:28:03;;;;;;;19.17;14.97;;;-0.40;99.90;;;;;;5073005;28;20044;-54
2022/11/20 08:30:29;;;;;;;19.05;15.10;;;-0.30;99.90;;;;;;5071968;28;20048;-54
2022/11/20 08:33:04;;;;;;;19.10;15.60;;;-0.30;99.90;;;;;;5072173;28;20105;-54
2022/11/20 08:35:34;;;;;;;20.85;14.88;;;-0.30;99.90;;;;;;5064021;28;20049;-53
2022/11/20 08:38:00;;;;;;;20.50;15.50;;;-0.20;99.90;;;;;;5045373;28;20127;-51
2022/11/20 08:40:26;;;;;;;22.67;16.17;;;-0.20;99.90;;;;;;5064429;28;20127;-53
2022/11/20 08:42:51;;;;;;;22.90;16.02;;;-0.10;99.90;;;;;;5066250;28;20049;-52
2022/11/20 08:45:18;;;;;;;18.58;15.13;;;-0.10;99.90;;;;;;5067695;28;20082;-55
2022/11/20 08:47:44;;;;;;;20.92;15.90;;;0.00;99.90;;;;;;5064114;28;20464;-54
2022/11/20 08:50:12;;;;;;;22.38;16.08;;;0.00;99.90;;;;;;5066554;28;20036;-54
2022/11/20 08:52:38;;;;;;;19.90;15.65;;;0.20;99.90;;;;;;5063350;28;20048;-56
2022/11/20 08:55:06;;;;;;;21.55;15.73;;;0.20;99.90;;;;;;5066736;28;20036;-53
2022/11/20 08:57:33;;;;;;;19.48;15.70;;;0.30;99.90;;;;;;5066952;28;20036;-52
2022/11/20 08:59:59;;;;;;;19.15;15.27;;;0.30;99.90;;;;;;5062265;28;20469;-54
2022/11/20 09:02:25;;;;;;;21.95;16.42;;;0.20;99.90;;;;;;5063376;28;20068;-51
2022/11/20 09:04:50;;;;;;;20.55;16.52;;;0.30;99.90;;;;;;5066318;28;20075;-54
2022/11/20 09:07:16;;;;;;;22.27;16.00;;;0.30;99.90;;;;;;5068371;28;20076;-53
2022/11/20 09:09:42;;;;;;;20.35;16.42;;;0.30;99.90;;;;;;5070799;28;20029;-55
2022/11/20 09:12:07;;;;;;;19.60;15.77;;;0.30;99.90;;;;;;5069808;28;20045;-55
2022/11/20 09:14:33;;;;;;;20.25;16.05;;;0.20;99.90;;;;;;5071014;28;20040;-52
2022/11/20 09:16:59;;;;;;;21.15;16.92;;;0.20;99.90;;;;;;5048907;28;20083;-57
2022/11/20 09:19:25;;;;;;;19.65;15.90;;;0.30;99.90;;;;;;5066413;28;20056;-54
2022/11/20 09:21:51;;;;;;;21.13;17.27;;;0.30;99.90;;;;;;5067786;28;20068;-52
2022/11/20 09:24:17;;;;;;;20.45;16.15;;;0.20;99.90;;;;;;5064729;28;20064;-54
2022/11/20 09:26:42;;;;;;;17.92;15.43;;;0.20;99.90;;;;;;5070505;28;20406;-56
2022/11/20 09:29:08;;;;;;;22.80;16.73;;;0.20;99.90;;;;;;5070637;28;20045;-52
2022/11/20 09:31:34;;;;;;;20.08;15.48;;;0.20;99.90;;;;;;5068064;28;20052;-53
2022/11/20 09:33:59;;;;;;;20.45;15.05;;;0.20;99.90;;;;;;5067216;28;20119;-54
2022/11/20 09:36:25;;;;;;;18.42;14.93;;;0.10;99.90;;;;;;5067680;28;20047;-54
2022/11/20 09:38:50;;;;;;;22.48;16.50;;;0.20;99.90;;;;;;5072437;28;20044;-51
2022/11/20 09:41:50;;;;;;;22.92;16.80;;;0.30;99.90;;;;;;5054536;28;20032;-55
2022/11/20 09:45:07;;;;;;;20.65;15.75;;;0.40;99.90;;;;;;5068039;28;20274;-54
2022/11/20 09:47:49;;;;;;;20.63;15.48;;;0.30;99.90;;;;;;5053646;28;20052;-54
2022/11/20 09:50:23;;;;;;;19.75;15.48;;;0.40;99.90;;;;;;5067593;28;20040;-56
2022/11/20 09:52:58;;;;;;;19.58;15.60;;;0.50;99.90;;;;;;5065315;28;20063;-55
2022/11/20 09:55:24;;;;;;;18.77;15.70;;;0.50;99.90;;;;;;5065368;28;20045;-52
2022/11/20 09:57:51;;;;;;;22.10;16.35;;;0.60;99.90;;;;;;5067554;28;20102;-55
2022/11/20 10:00:20;;;;;;;20.38;15.23;;;0.60;99.90;;;;;;5101139;22;20088;-55
2022/11/20 10:03:05;;;;;;;20.25;15.88;;;0.60;99.90;;;;;;5061712;28;20101;-53
2022/11/20 10:05:52;;;;;;;22.77;14.90;;;0.70;99.90;;;;;;5064170;28;20470;-52
2022/11/20 10:08:24;;;;;;;19.45;13.43;;;0.60;99.90;;;;;;5067717;28;20036;-55
2022/11/20 10:10:51;;;;;;;18.98;15.30;;;0.70;99.90;;;;;;5063887;28;20457;-56
2022/11/20 10:13:39;;;;;;;17.38;13.40;;;0.90;99.90;;;;;;5065267;28;20048;-55
2022/11/20 10:16:42;;;;;;;17.15;14.48;;;1.00;99.90;;;;;;5063237;28;20040;-55
2022/11/20 10:19:49;;;;;;;15.77;13.30;;;1.00;99.90;;;;;;5068400;28;20040;-56
2022/11/20 10:22:21;;;;;;;16.23;12.80;;;1.10;99.90;;;;;;5061658;28;20409;-55
2022/11/20 10:25:04;;;;;;;14.00;12.52;;;1.20;99.90;;;;;;5069794;28;20144;-55
2022/11/20 10:27:36;;;;;;;17.52;13.50;;;1.20;99.90;;;;;;5061894;28;20041;-54
2022/11/20 10:30:19;;;;;;;18.25;13.65;;;1.30;99.90;;;;;;5060382;28;20118;-55
2022/11/20 10:33:09;;;;;;;17.00;14.43;;;1.40;99.90;;;;;;5062541;28;20029;-55
2022/11/20 10:35:37;;;;;;;20.60;13.38;;;;;;;;;;5061188;28;20052;-55
2022/11/20 10:38:09;;;;;;;15.55;13.35;;;1.70;99.90;;;;;;5068532;28;20398;-55
2022/11/20 10:40:44;;;;;;;14.45;12.65;;;1.50;99.90;;;;;;5066945;28;20418;-52
2022/11/20 10:43:32;;;;;;;16.20;12.70;;;1.70;99.90;;;;;;5070613;28;20048;-55
2022/11/20 10:46:02;;;;;;;17.52;13.07;;;1.70;99.90;;;;;;5067779;28;20459;-55
2022/11/20 10:48:30;;;;;;;14.50;11.50;;;1.90;99.90;;;;;;5075636;28;20052;-55
2022/11/20 10:51:04;;;;;;;17.38;12.43;;;2.00;99.90;;;;;;5071005;28;20048;-55
2022/11/20 10:53:29;;;;;;;14.55;11.50;;;2.10;99.90;;;;;;5075308;28;20049;-54
2022/11/20 10:56:08;;;;;;;15.45;11.90;;;2.20;99.90;;;;;;5070068;28;20052;-55
2022/11/20 10:58:48;;;;;;;15.80;12.48;;;2.30;99.90;;;;;;5048021;28;20408;-54
2022/11/20 11:01:17;;;;;;;13.65;12.20;;;2.50;99.90;;;;;;5047982;28;20490;-55
2022/11/20 11:03:43;;;;;;;14.25;12.25;;;2.70;99.90;;;;;;5046087;28;20048;-55
2022/11/20 11:06:30;;;;;;;15.30;12.75;;;2.50;99.90;;;;;;5011795;28;20041;-51
2022/11/20 11:09:00;;;;;;;14.85;12.57;;;2.70;99.90;;;;;;5046794;28;20111;-53
2022/11/20 11:11:32;;;;;;;14.07;12.48;;;2.90;99.90;;;;;;5047065;28;20049;-55
2022/11/20 11:14:15;;;;;;;17.15;12.95;;;2.90;99.90;;;;;;5046904;28;20047;-52
2022/11/20 11:16:57;;;;;;;14.10;11.85;;;3.10;99.90;;;;;;5047928;28;20068;-52
2022/11/20 11:19:24;;;;;;;13.90;11.73;;;3.20;99.90;;;;;;5044538;28;20043;-55
2022/11/20 11:21:56;;;;;;;16.25;12.18;;;3.10;99.90;;;;;;5046302;28;20513;-55
2022/11/20 11:24:24;;;;;;;13.88;11.63;;;3.10;99.90;;;;;;5048843;28;20041;-56
2022/11/20 11:27:03;;;;;;;13.07;11.18;;;3.30;99.90;;;;;;5048550;28;20124;-55
2022/11/20 11:29:30;;;;;;;15.23;11.90;;;3.10;99.90;;;;;;5030203;28;20091;-54
2022/11/20 11:32:14;;;;;;;12.38;10.75;;;3.10;99.90;;;;;;5046504;28;20170;-55
2022/11/20 11:34:40;;;;;;;13.18;11.52;;;3.10;99.90;;;;;;5047390;28;20124;-52
2022/11/20 11:37:23;;;;;;;13.10;11.20;;;3.30;99.90;;;;;;5043956;28;20077;-53
2022/11/20 11:39:50;;;;;;;12.82;11.32;;;3.40;99.90;;;;;;5042492;28;20037;-51
2022/11/20 11:42:20;;;;;;;13.25;10.10;;;3.30;99.90;;;;;;5046346;28;20123;-51
2022/11/20 11:45:05;;;;;;;13.55;10.95;;;3.50;99.90;;;;;;5047507;28;20908;-52
2022/11/20 11:47:36;;;;;;;11.65;10.45;;;3.60;99.90;;;;;;5046657;28;20044;-54
2022/11/20 11:50:22;;;;;;;11.95;10.38;;;3.60;99.90;;;;;;5046281;28;20427;-52
2022/11/20 11:52:47;;;;;;;13.18;10.60;;;3.70;99.90;;;;;;5042900;28;20041;-55
2022/11/20 11:55:33;;;;;;;12.73;10.23;;;3.70;99.90;;;;;;5053679;28;20055;-52
2022/11/20 11:58:32;;;;;;;11.88;9.85;;;3.70;99.90;;;;;;5050174;28;20044;-53
2022/11/20 12:01:20;;;;;;;11.43;10.20;;;3.60;99.90;;;;;;5015230;28;20476;-52
2022/11/20 12:03:53;;;;;;;;;;;3.60;99.90;;;;;;5051481;28;20497;-51
2022/11/20 12:06:19;;;;;;;10.55;9.45;;;3.60;99.90;;;;;;5049300;28;19956;-56
2022/11/20 12:09:05;;;;;;;11.60;10.35;;;3.70;99.90;;;;;;5053725;28;20084;-55
2022/11/20 12:11:54;;;;;;;11.93;10.60;;;3.70;99.90;;;;;;5040604;28;20041;-54
2022/11/20 12:14:36;;;;;;;12.18;9.80;;;3.60;99.90;;;;;;5049407;28;20053;-52
2022/11/20 12:17:02;;;;;;;11.27;9.52;;;3.70;99.90;;;;;;5051652;28;20119;-53
2022/11/20 12:19:34;;;;;;;12.73;11.43;;;3.70;99.90;;;;;;5053594;28;20041;-54
2022/11/20 12:22:32;;;;;;;10.57;9.30;;;3.60;99.90;;;;;;5051633;28;20377;-52
2022/11/20 12:25:20;;;;;;;11.32;10.13;;;3.60;99.90;;;;;;5050730;28;20088;-55
2022/11/20 12:28:12;;;;;;;11.82;9.20;;;3.70;99.90;;;;;;5043241;28;20120;-54
2022/11/20 12:31:09;;;;;;;10.38;9.20;;;3.80;99.90;;;;;;5048937;28;20037;-52
2022/11/20 12:33:34;;;;;;;11.75;9.77;;;3.80;99.90;;;;;;5040182;28;20486;-54
2022/11/20 12:36:34;;;;;;;10.65;9.55;;;3.80;99.90;;;;;;5043510;28;20071;-53
2022/11/20 12:39:31;;;;;;;11.88;10.50;;;3.70;99.90;;;;;;5043811;28;20359;-51
2022/11/20 12:45:38;;;;;;;16.27;13.00;;;3.60;99.90;;;;;;5040755;28;20292;-51
2022/11/20 12:48:25;;;;;;;9.90;8.88;;;3.60;99.90;;;;;;5042032;28;20053;-52
2022/11/20 12:51:12;;;;;;;11.25;9.35;;;3.60;99.90;;;;;;5044737;28;20133;-54
2022/11/20 12:54:09;;;;;;;10.95;9.85;;;3.50;99.90;;;;;;5047554;28;20071;-50
2022/11/20 12:56:38;;;;;;;11.02;9.82;;;3.50;99.90;;;;;;5023703;28;20411;-52